sensor_id;sensor_type;location;lat;lon;timestamp;P1;durP1;ratioP1;P2;durP2;ratioP2
29812;SDS011;16707;48.106;11.548;2023-02-28T00:01:10;8.05;;;4.10;;
29812;SDS011;16707;48.106;11.548;2023-02-28T00:03:41;4.35;;;3.20;;
29812;SDS011;16707;48.106;11.548;2023-02-28T00:06:08;4.68;;;2.92;;
29812;SDS011;16707;48.106;11.548;2023-02-28T00:08:35;4.85;;;3.20;;
29812;SDS011;16707;48.106;11.548;2023-02-28T00:11:03;6.30;;;3.65;;
29812;SDS011;16707;48.106;11.548;2023-02-28T00:13:35;4.85;;;3.33;;
29812;SDS011;16707;48.106;11.548;2023-02-28T00:16:04;6.40;;;3.50;;
29812;SDS011;16707;48.106;11.548;2023-02-28T00:18:40;7.28;;;4.18;;
29812;SDS011;16707;48.106;11.548;2023-02-28T00:21:08;6.53;;;3.97;;
29812;SDS011;16707;48.106;11.548;2023-02-28T00:23:41;5.05;;;3.72;;
29812;SDS011;16707;48.106;11.548;2023-02-28T00:26:09;5.13;;;3.85;;
29812;SDS011;16707;48.106;11.548;2023-02-28T00:28:40;6.38;;;4.15;;
29812;SDS011;16707;48.106;11.548;2023-02-28T00:31:10;8.05;;;3.90;;
29812;SDS011;16707;48.106;11.548;2023-02-28T00:33:37;4.95;;;3.30;;
29812;SDS011;16707;48.106;11.548;2023-02-28T00:36:05;5.35;;;3.90;;
29812;SDS011;16707;48.106;11.548;2023-02-28T00:38:34;8.43;;;3.90;;
29812;SDS011;16707;48.106;11.548;2023-02-28T00:41:04;4.60;;;3.53;;
29812;SDS011;16707;48.106;11.548;2023-02-28T00:43:35;6.57;;;3.97;;
29812;SDS011;16707;48.106;11.548;2023-02-28T00:46:05;4.95;;;3.53;;
29812;SDS011;16707;48.106;11.548;2023-02-28T00:48:39;6.50;;;3.80;;
29812;SDS011;16707;48.106;11.548;2023-02-28T00:51:06;6.72;;;4.05;;
29812;SDS011;16707;48.106;11.548;2023-02-28T00:53:36;5.50;;;3.95;;
29812;SDS011;16707;48.106;11.548;2023-02-28T00:56:05;4.55;;;3.67;;
29812;SDS011;16707;48.106;11.548;2023-02-28T00:58:35;5.63;;;3.55;;
29812;SDS011;16707;48.106;11.548;2023-02-28T01:01:02;5.97;;;4.03;;
29812;SDS011;16707;48.106;11.548;2023-02-28T01:03:31;6.55;;;4.15;;
29812;SDS011;16707;48.106;11.548;2023-02-28T01:05:58;5.20;;;4.03;;
29812;SDS011;16707;48.106;11.548;2023-02-28T01:08:25;5.57;;;4.25;;
29812;SDS011;16707;48.106;11.548;2023-02-28T01:10:54;5.25;;;3.83;;
29812;SDS011;16707;48.106;11.548;2023-02-28T01:13:22;5.03;;;3.78;;
29812;SDS011;16707;48.106;11.548;2023-02-28T01:15:50;5.93;;;4.22;;
29812;SDS011;16707;48.106;11.548;2023-02-28T01:18:19;5.88;;;4.00;;
29812;SDS011;16707;48.106;11.548;2023-02-28T01:20:48;7.15;;;4.10;;
29812;SDS011;16707;48.106;11.548;2023-02-28T01:23:18;4.32;;;3.92;;
29812;SDS011;16707;48.106;11.548;2023-02-28T01:25:45;6.40;;;4.10;;
29812;SDS011;16707;48.106;11.548;2023-02-28T01:28:12;6.70;;;4.47;;
29812;SDS011;16707;48.106;11.548;2023-02-28T01:30:39;5.90;;;3.92;;
29812;SDS011;16707;48.106;11.548;2023-02-28T01:33:09;7.22;;;4.50;;
29812;SDS011;16707;48.106;11.548;2023-02-28T01:35:36;9.35;;;4.15;;
29812;SDS011;16707;48.106;11.548;2023-02-28T01:38:05;8.10;;;4.30;;
29812;SDS011;16707;48.106;11.548;2023-02-28T01:40:32;6.35;;;4.40;;
29812;SDS011;16707;48.106;11.548;2023-02-28T01:42:59;6.38;;;4.70;;
29812;SDS011;16707;48.106;11.548;2023-02-28T01:45:26;6.53;;;4.95;;
29812;SDS011;16707;48.106;11.548;2023-02-28T01:47:54;5.60;;;4.00;;
29812;SDS011;16707;48.106;11.548;2023-02-28T01:50:25;5.60;;;4.35;;
29812;SDS011;16707;48.106;11.548;2023-02-28T01:52:56;4.50;;;3.83;;
29812;SDS011;16707;48.106;11.548;2023-02-28T01:55:35;5.28;;;4.22;;
29812;SDS011;16707;48.106;11.548;2023-02-28T01:58:04;6.28;;;4.35;;
29812;SDS011;16707;48.106;11.548;2023-02-28T02:00:32;6.57;;;4.43;;
29812;SDS011;16707;48.106;11.548;2023-02-28T02:03:00;6.30;;;4.80;;
29812;SDS011;16707;48.106;11.548;2023-02-28T02:05:34;9.25;;;5.50;;
29812;SDS011;16707;48.106;11.548;2023-02-28T02:08:13;5.30;;;4.57;;
29812;SDS011;16707;48.106;11.548;2023-02-28T02:10:52;5.47;;;4.32;;
29812;SDS011;16707;48.106;11.548;2023-02-28T02:13:28;8.48;;;4.78;;
29812;SDS011;16707;48.106;11.548;2023-02-28T02:16:10;6.03;;;3.72;;
29812;SDS011;16707;48.106;11.548;2023-02-28T02:18:51;6.07;;;4.95;;
29812;SDS011;16707;48.106;11.548;2023-02-28T02:21:40;5.28;;;4.00;;
29812;SDS011;16707;48.106;11.548;2023-02-28T02:27:42;6.97;;;4.63;;
29812;SDS011;16707;48.106;11.548;2023-02-28T02:30:29;6.57;;;5.38;;
29812;SDS011;16707;48.106;11.548;2023-02-28T02:41:51;7.35;;;4.50;;
29812;SDS011;16707;48.106;11.548;2023-02-28T02:44:20;9.40;;;4.55;;
29812;SDS011;16707;48.106;11.548;2023-02-28T02:46:51;7.13;;;5.25;;
29812;SDS011;16707;48.106;11.548;2023-02-28T02:49:24;6.18;;;4.25;;
29812;SDS011;16707;48.106;11.548;2023-02-28T02:51:56;6.97;;;4.88;;
29812;SDS011;16707;48.106;11.548;2023-02-28T02:54:27;8.70;;;5.60;;
29812;SDS011;16707;48.106;11.548;2023-02-28T02:56:58;7.30;;;4.97;;
29812;SDS011;16707;48.106;11.548;2023-02-28T02:59:29;8.25;;;5.50;;
29812;SDS011;16707;48.106;11.548;2023-02-28T03:01:58;7.93;;;5.85;;
29812;SDS011;16707;48.106;11.548;2023-02-28T03:04:28;6.80;;;5.47;;
29812;SDS011;16707;48.106;11.548;2023-02-28T03:07:01;8.60;;;5.63;;
29812;SDS011;16707;48.106;11.548;2023-02-28T03:09:28;6.90;;;5.05;;
29812;SDS011;16707;48.106;11.548;2023-02-28T03:12:00;9.77;;;5.15;;
29812;SDS011;16707;48.106;11.548;2023-02-28T03:15:03;11.25;;;5.47;;
29812;SDS011;16707;48.106;11.548;2023-02-28T03:17:44;8.35;;;5.13;;
29812;SDS011;16707;48.106;11.548;2023-02-28T03:20:23;8.15;;;5.65;;
29812;SDS011;16707;48.106;11.548;2023-02-28T03:23:13;12.27;;;5.78;;
29812;SDS011;16707;48.106;11.548;2023-02-28T03:25:51;8.02;;;5.43;;
29812;SDS011;16707;48.106;11.548;2023-02-28T03:28:43;8.25;;;4.95;;
29812;SDS011;16707;48.106;11.548;2023-02-28T03:31:19;6.28;;;5.03;;
29812;SDS011;16707;48.106;11.548;2023-02-28T03:33:50;9.32;;;5.30;;
29812;SDS011;16707;48.106;11.548;2023-02-28T03:36:27;7.97;;;5.50;;
29812;SDS011;16707;48.106;11.548;2023-02-28T03:38:58;7.00;;;5.75;;
29812;SDS011;16707;48.106;11.548;2023-02-28T03:41:30;9.82;;;5.63;;
29812;SDS011;16707;48.106;11.548;2023-02-28T03:44:03;8.75;;;6.10;;
29812;SDS011;16707;48.106;11.548;2023-02-28T03:46:36;8.02;;;5.88;;
29812;SDS011;16707;48.106;11.548;2023-02-28T03:49:20;10.63;;;5.80;;
29812;SDS011;16707;48.106;11.548;2023-02-28T03:51:51;11.68;;;5.80;;
29812;SDS011;16707;48.106;11.548;2023-02-28T03:54:27;8.10;;;5.72;;
29812;SDS011;16707;48.106;11.548;2023-02-28T03:59:54;8.13;;;6.03;;
29812;SDS011;16707;48.106;11.548;2023-02-28T04:02:34;9.40;;;6.15;;
29812;SDS011;16707;48.106;11.548;2023-02-28T04:05:01;7.60;;;5.78;;
29812;SDS011;16707;48.106;11.548;2023-02-28T04:07:32;11.20;;;6.70;;
29812;SDS011;16707;48.106;11.548;2023-02-28T04:10:08;9.55;;;6.50;;
29812;SDS011;16707;48.106;11.548;2023-02-28T04:12:37;10.93;;;6.82;;
29812;SDS011;16707;48.106;11.548;2023-02-28T04:15:10;10.23;;;6.75;;
29812;SDS011;16707;48.106;11.548;2023-02-28T04:17:38;10.30;;;7.72;;
29812;SDS011;16707;48.106;11.548;2023-02-28T04:20:07;9.65;;;6.38;;
29812;SDS011;16707;48.106;11.548;2023-02-28T04:22:54;11.52;;;7.82;;
29812;SDS011;16707;48.106;11.548;2023-02-28T04:25:39;12.88;;;6.47;;
29812;SDS011;16707;48.106;11.548;2023-02-28T04:28:06;12.30;;;6.80;;
29812;SDS011;16707;48.106;11.548;2023-02-28T04:30:37;9.93;;;6.90;;
29812;SDS011;16707;48.106;11.548;2023-02-28T04:33:05;10.55;;;6.78;;
29812;SDS011;16707;48.106;11.548;2023-02-28T04:35:35;11.70;;;7.15;;
29812;SDS011;16707;48.106;11.548;2023-02-28T04:38:05;12.60;;;8.38;;
29812;SDS011;16707;48.106;11.548;2023-02-28T04:40:32;12.05;;;8.13;;
29812;SDS011;16707;48.106;11.548;2023-02-28T04:43:09;12.30;;;7.90;;
29812;SDS011;16707;48.106;11.548;2023-02-28T04:45:49;13.02;;;7.90;;
29812;SDS011;16707;48.106;11.548;2023-02-28T04:48:17;13.50;;;7.43;;
29812;SDS011;16707;48.106;11.548;2023-02-28T04:50:43;11.07;;;8.05;;
29812;SDS011;16707;48.106;11.548;2023-02-28T04:53:18;13.07;;;7.60;;
29812;SDS011;16707;48.106;11.548;2023-02-28T04:55:45;12.63;;;7.32;;
29812;SDS011;16707;48.106;11.548;2023-02-28T04:58:18;13.05;;;8.00;;
29812;SDS011;16707;48.106;11.548;2023-02-28T05:00:51;12.57;;;8.10;;
29812;SDS011;16707;48.106;11.548;2023-02-28T05:03:21;15.13;;;8.95;;
29812;SDS011;16707;48.106;11.548;2023-02-28T05:05:49;13.52;;;8.95;;
29812;SDS011;16707;48.106;11.548;2023-02-28T05:08:16;13.32;;;8.13;;
29812;SDS011;16707;48.106;11.548;2023-02-28T05:10:43;14.25;;;8.48;;
29812;SDS011;16707;48.106;11.548;2023-02-28T05:13:10;13.32;;;8.55;;
29812;SDS011;16707;48.106;11.548;2023-02-28T05:15:41;13.77;;;8.85;;
29812;SDS011;16707;48.106;11.548;2023-02-28T05:18:08;13.57;;;9.00;;
29812;SDS011;16707;48.106;11.548;2023-02-28T05:20:38;14.00;;;8.48;;
29812;SDS011;16707;48.106;11.548;2023-02-28T05:23:12;14.05;;;8.57;;
29812;SDS011;16707;48.106;11.548;2023-02-28T05:25:44;15.38;;;8.63;;
29812;SDS011;16707;48.106;11.548;2023-02-28T05:28:14;13.53;;;9.07;;
29812;SDS011;16707;48.106;11.548;2023-02-28T05:30:42;14.25;;;8.40;;
29812;SDS011;16707;48.106;11.548;2023-02-28T05:33:09;13.52;;;9.35;;
29812;SDS011;16707;48.106;11.548;2023-02-28T05:35:39;15.13;;;9.23;;
29812;SDS011;16707;48.106;11.548;2023-02-28T05:38:09;14.77;;;9.27;;
29812;SDS011;16707;48.106;11.548;2023-02-28T05:40:40;15.88;;;9.65;;
29812;SDS011;16707;48.106;11.548;2023-02-28T05:43:09;15.27;;;9.68;;
29812;SDS011;16707;48.106;11.548;2023-02-28T05:45:38;14.20;;;9.23;;
29812;SDS011;16707;48.106;11.548;2023-02-28T05:48:16;14.15;;;9.38;;
29812;SDS011;16707;48.106;11.548;2023-02-28T05:50:44;15.32;;;9.55;;
29812;SDS011;16707;48.106;11.548;2023-02-28T05:53:11;17.65;;;11.73;;
29812;SDS011;16707;48.106;11.548;2023-02-28T05:55:39;15.07;;;8.63;;
29812;SDS011;16707;48.106;11.548;2023-02-28T05:58:08;15.25;;;10.07;;
29812;SDS011;16707;48.106;11.548;2023-02-28T06:00:35;17.83;;;10.95;;
29812;SDS011;16707;48.106;11.548;2023-02-28T06:03:06;17.30;;;9.38;;
29812;SDS011;16707;48.106;11.548;2023-02-28T06:05:36;16.25;;;9.77;;
29812;SDS011;16707;48.106;11.548;2023-02-28T06:08:03;16.30;;;9.40;;
29812;SDS011;16707;48.106;11.548;2023-02-28T06:10:32;20.55;;;10.75;;
29812;SDS011;16707;48.106;11.548;2023-02-28T06:13:02;14.80;;;9.30;;
29812;SDS011;16707;48.106;11.548;2023-02-28T06:15:30;16.00;;;9.48;;
29812;SDS011;16707;48.106;11.548;2023-02-28T06:17:58;17.38;;;10.40;;
29812;SDS011;16707;48.106;11.548;2023-02-28T06:20:27;16.98;;;10.25;;
29812;SDS011;16707;48.106;11.548;2023-02-28T06:22:55;15.40;;;10.10;;
29812;SDS011;16707;48.106;11.548;2023-02-28T06:25:26;15.57;;;9.63;;
29812;SDS011;16707;48.106;11.548;2023-02-28T06:27:53;17.90;;;10.05;;
29812;SDS011;16707;48.106;11.548;2023-02-28T06:30:24;16.55;;;9.82;;
29812;SDS011;16707;48.106;11.548;2023-02-28T06:32:53;16.73;;;10.40;;
29812;SDS011;16707;48.106;11.548;2023-02-28T06:35:22;16.15;;;9.48;;
29812;SDS011;16707;48.106;11.548;2023-02-28T06:37:51;16.83;;;9.25;;
29812;SDS011;16707;48.106;11.548;2023-02-28T06:40:19;16.75;;;11.25;;
29812;SDS011;16707;48.106;11.548;2023-02-28T06:42:53;19.63;;;10.30;;
29812;SDS011;16707;48.106;11.548;2023-02-28T06:45:23;16.90;;;10.35;;
29812;SDS011;16707;48.106;11.548;2023-02-28T06:47:51;19.00;;;10.32;;
29812;SDS011;16707;48.106;11.548;2023-02-28T06:50:18;19.00;;;10.93;;
29812;SDS011;16707;48.106;11.548;2023-02-28T06:52:45;17.88;;;10.57;;
29812;SDS011;16707;48.106;11.548;2023-02-28T06:55:14;15.30;;;10.43;;
29812;SDS011;16707;48.106;11.548;2023-02-28T06:57:43;15.77;;;9.55;;
29812;SDS011;16707;48.106;11.548;2023-02-28T07:00:10;16.42;;;9.57;;
29812;SDS011;16707;48.106;11.548;2023-02-28T07:02:38;17.95;;;10.10;;
29812;SDS011;16707;48.106;11.548;2023-02-28T07:05:08;20.30;;;10.77;;
29812;SDS011;16707;48.106;11.548;2023-02-28T07:07:38;18.10;;;10.77;;
29812;SDS011;16707;48.106;11.548;2023-02-28T07:10:09;21.70;;;11.30;;
29812;SDS011;16707;48.106;11.548;2023-02-28T07:12:39;21.38;;;11.27;;
29812;SDS011;16707;48.106;11.548;2023-02-28T07:15:07;17.90;;;10.27;;
29812;SDS011;16707;48.106;11.548;2023-02-28T07:17:38;17.30;;;10.90;;
29812;SDS011;16707;48.106;11.548;2023-02-28T07:20:08;17.63;;;10.48;;
29812;SDS011;16707;48.106;11.548;2023-02-28T07:22:36;18.88;;;11.45;;
29812;SDS011;16707;48.106;11.548;2023-02-28T07:25:03;16.73;;;10.40;;
29812;SDS011;16707;48.106;11.548;2023-02-28T07:27:34;18.77;;;11.23;;
29812;SDS011;16707;48.106;11.548;2023-02-28T07:30:03;16.70;;;10.55;;
29812;SDS011;16707;48.106;11.548;2023-02-28T07:32:30;15.88;;;10.13;;
29812;SDS011;16707;48.106;11.548;2023-02-28T07:34:57;22.58;;;12.52;;
29812;SDS011;16707;48.106;11.548;2023-02-28T07:37:24;17.30;;;11.15;;
29812;SDS011;16707;48.106;11.548;2023-02-28T07:39:54;22.35;;;12.20;;
29812;SDS011;16707;48.106;11.548;2023-02-28T07:42:20;16.85;;;10.95;;
29812;SDS011;16707;48.106;11.548;2023-02-28T07:44:48;18.42;;;10.57;;
29812;SDS011;16707;48.106;11.548;2023-02-28T07:47:18;20.42;;;11.13;;
29812;SDS011;16707;48.106;11.548;2023-02-28T07:49:46;17.42;;;10.07;;
29812;SDS011;16707;48.106;11.548;2023-02-28T07:52:13;20.00;;;11.57;;
29812;SDS011;16707;48.106;11.548;2023-02-28T07:54:40;19.52;;;12.00;;
29812;SDS011;16707;48.106;11.548;2023-02-28T07:57:10;17.90;;;10.57;;
29812;SDS011;16707;48.106;11.548;2023-02-28T07:59:39;14.32;;;9.63;;
29812;SDS011;16707;48.106;11.548;2023-02-28T08:02:06;18.38;;;11.82;;
29812;SDS011;16707;48.106;11.548;2023-02-28T08:04:40;17.08;;;11.13;;
29812;SDS011;16707;48.106;11.548;2023-02-28T08:07:07;17.75;;;10.98;;
29812;SDS011;16707;48.106;11.548;2023-02-28T08:09:38;17.13;;;10.73;;
29812;SDS011;16707;48.106;11.548;2023-02-28T08:12:08;15.95;;;10.63;;
29812;SDS011;16707;48.106;11.548;2023-02-28T08:14:38;18.15;;;11.13;;
29812;SDS011;16707;48.106;11.548;2023-02-28T08:17:06;17.38;;;11.00;;
29812;SDS011;16707;48.106;11.548;2023-02-28T08:19:34;19.27;;;11.30;;
29812;SDS011;16707;48.106;11.548;2023-02-28T08:22:02;18.85;;;10.85;;
29812;SDS011;16707;48.106;11.548;2023-02-28T08:24:29;17.60;;;11.20;;
29812;SDS011;16707;48.106;11.548;2023-02-28T08:26:59;18.95;;;11.00;;
29812;SDS011;16707;48.106;11.548;2023-02-28T08:29:34;15.68;;;9.95;;
29812;SDS011;16707;48.106;11.548;2023-02-28T08:32:03;20.45;;;12.30;;
29812;SDS011;16707;48.106;11.548;2023-02-28T08:34:33;21.80;;;12.05;;
29812;SDS011;16707;48.106;11.548;2023-02-28T08:37:01;21.75;;;11.75;;
29812;SDS011;16707;48.106;11.548;2023-02-28T08:39:28;18.83;;;11.82;;
29812;SDS011;16707;48.106;11.548;2023-02-28T08:41:55;19.85;;;11.32;;
29812;SDS011;16707;48.106;11.548;2023-02-28T08:44:22;18.08;;;11.07;;
29812;SDS011;16707;48.106;11.548;2023-02-28T08:46:49;18.27;;;10.60;;
29812;SDS011;16707;48.106;11.548;2023-02-28T08:49:17;15.13;;;10.98;;
29812;SDS011;16707;48.106;11.548;2023-02-28T08:51:44;19.80;;;12.15;;
29812;SDS011;16707;48.106;11.548;2023-02-28T08:54:13;19.42;;;11.25;;
29812;SDS011;16707;48.106;11.548;2023-02-28T08:56:44;17.13;;;11.40;;
29812;SDS011;16707;48.106;11.548;2023-02-28T08:59:11;17.30;;;11.32;;
29812;SDS011;16707;48.106;11.548;2023-02-28T09:01:44;17.17;;;9.70;;
29812;SDS011;16707;48.106;11.548;2023-02-28T09:04:17;16.98;;;10.93;;
29812;SDS011;16707;48.106;11.548;2023-02-28T09:06:45;17.70;;;10.35;;
29812;SDS011;16707;48.106;11.548;2023-02-28T09:09:15;16.08;;;10.57;;
29812;SDS011;16707;48.106;11.548;2023-02-28T09:11:42;18.60;;;11.15;;
29812;SDS011;16707;48.106;11.548;2023-02-28T09:14:12;15.57;;;11.27;;
29812;SDS011;16707;48.106;11.548;2023-02-28T09:16:39;17.73;;;10.88;;
29812;SDS011;16707;48.106;11.548;2023-02-28T09:19:06;19.83;;;11.00;;
29812;SDS011;16707;48.106;11.548;2023-02-28T09:21:36;17.95;;;9.73;;
29812;SDS011;16707;48.106;11.548;2023-02-28T09:24:04;17.63;;;10.68;;
29812;SDS011;16707;48.106;11.548;2023-02-28T09:26:34;15.63;;;10.63;;
29812;SDS011;16707;48.106;11.548;2023-02-28T09:29:04;18.40;;;11.30;;
29812;SDS011;16707;48.106;11.548;2023-02-28T09:31:31;17.92;;;10.35;;
29812;SDS011;16707;48.106;11.548;2023-02-28T09:34:03;17.73;;;10.18;;
29812;SDS011;16707;48.106;11.548;2023-02-28T09:36:35;16.23;;;10.35;;
29812;SDS011;16707;48.106;11.548;2023-02-28T09:39:03;16.88;;;11.05;;
29812;SDS011;16707;48.106;11.548;2023-02-28T09:41:32;15.05;;;10.02;;
29812;SDS011;16707;48.106;11.548;2023-02-28T09:44:15;14.73;;;10.77;;
29812;SDS011;16707;48.106;11.548;2023-02-28T09:46:53;16.33;;;11.05;;
29812;SDS011;16707;48.106;11.548;2023-02-28T09:49:31;18.02;;;10.82;;
29812;SDS011;16707;48.106;11.548;2023-02-28T09:52:04;14.40;;;9.23;;
29812;SDS011;16707;48.106;11.548;2023-02-28T09:54:34;20.10;;;11.85;;
29812;SDS011;16707;48.106;11.548;2023-02-28T09:57:08;18.35;;;10.55;;
29812;SDS011;16707;48.106;11.548;2023-02-28T09:59:47;20.90;;;11.75;;
29812;SDS011;16707;48.106;11.548;2023-02-28T10:02:31;16.73;;;10.93;;
29812;SDS011;16707;48.106;11.548;2023-02-28T10:05:23;14.57;;;10.23;;
29812;SDS011;16707;48.106;11.548;2023-02-28T10:07:56;16.48;;;9.77;;
29812;SDS011;16707;48.106;11.548;2023-02-28T10:10:35;21.48;;;11.63;;
29812;SDS011;16707;48.106;11.548;2023-02-28T10:13:11;19.55;;;10.55;;
29812;SDS011;16707;48.106;11.548;2023-02-28T10:15:47;14.32;;;10.38;;
29812;SDS011;16707;48.106;11.548;2023-02-28T10:18:19;16.90;;;10.90;;
29812;SDS011;16707;48.106;11.548;2023-02-28T10:20:53;17.87;;;11.63;;
29812;SDS011;16707;48.106;11.548;2023-02-28T10:23:23;19.00;;;11.18;;
29812;SDS011;16707;48.106;11.548;2023-02-28T10:25:53;16.42;;;10.73;;
29812;SDS011;16707;48.106;11.548;2023-02-28T10:28:30;16.27;;;9.63;;
29812;SDS011;16707;48.106;11.548;2023-02-28T10:30:57;17.95;;;10.93;;
29812;SDS011;16707;48.106;11.548;2023-02-28T10:33:25;17.02;;;12.10;;
29812;SDS011;16707;48.106;11.548;2023-02-28T10:35:55;18.50;;;10.63;;
29812;SDS011;16707;48.106;11.548;2023-02-28T10:38:25;16.55;;;9.90;;
29812;SDS011;16707;48.106;11.548;2023-02-28T10:41:03;16.27;;;10.25;;
29812;SDS011;16707;48.106;11.548;2023-02-28T10:43:33;17.23;;;10.98;;
29812;SDS011;16707;48.106;11.548;2023-02-28T10:46:01;20.88;;;10.95;;
29812;SDS011;16707;48.106;11.548;2023-02-28T10:48:34;18.40;;;11.10;;
29812;SDS011;16707;48.106;11.548;2023-02-28T10:51:07;15.07;;;10.07;;
29812;SDS011;16707;48.106;11.548;2023-02-28T10:53:47;14.95;;;10.15;;
29812;SDS011;16707;48.106;11.548;2023-02-28T10:56:16;18.13;;;11.30;;
29812;SDS011;16707;48.106;11.548;2023-02-28T10:58:49;14.98;;;10.20;;
29812;SDS011;16707;48.106;11.548;2023-02-28T11:01:20;15.50;;;9.57;;
29812;SDS011;16707;48.106;11.548;2023-02-28T11:03:48;15.05;;;9.40;;
29812;SDS011;16707;48.106;11.548;2023-02-28T11:06:17;16.63;;;9.27;;
29812;SDS011;16707;48.106;11.548;2023-02-28T11:08:47;17.23;;;9.13;;
29812;SDS011;16707;48.106;11.548;2023-02-28T11:11:19;15.30;;;9.45;;
29812;SDS011;16707;48.106;11.548;2023-02-28T11:13:53;12.98;;;9.13;;
29812;SDS011;16707;48.106;11.548;2023-02-28T11:16:29;14.98;;;9.43;;
29812;SDS011;16707;48.106;11.548;2023-02-28T11:19:00;16.50;;;9.50;;
29812;SDS011;16707;48.106;11.548;2023-02-28T11:21:29;14.23;;;9.07;;
29812;SDS011;16707;48.106;11.548;2023-02-28T11:24:05;15.13;;;9.73;;
29812;SDS011;16707;48.106;11.548;2023-02-28T11:26:43;13.77;;;10.48;;
29812;SDS011;16707;48.106;11.548;2023-02-28T11:29:20;18.80;;;10.07;;
29812;SDS011;16707;48.106;11.548;2023-02-28T11:34:34;14.82;;;9.25;;
29812;SDS011;16707;48.106;11.548;2023-02-28T11:37:03;16.50;;;9.63;;
29812;SDS011;16707;48.106;11.548;2023-02-28T11:39:32;14.75;;;10.32;;
29812;SDS011;16707;48.106;11.548;2023-02-28T11:42:12;14.15;;;9.20;;
29812;SDS011;16707;48.106;11.548;2023-02-28T11:44:56;18.50;;;10.43;;
29812;SDS011;16707;48.106;11.548;2023-02-28T11:47:35;17.02;;;10.90;;
29812;SDS011;16707;48.106;11.548;2023-02-28T11:50:23;14.35;;;9.23;;
29812;SDS011;16707;48.106;11.548;2023-02-28T11:53:05;14.77;;;9.55;;
29812;SDS011;16707;48.106;11.548;2023-02-28T11:55:42;15.60;;;9.60;;
29812;SDS011;16707;48.106;11.548;2023-02-28T11:58:17;17.92;;;9.70;;
29812;SDS011;16707;48.106;11.548;2023-02-28T12:01:06;16.15;;;9.68;;
29812;SDS011;16707;48.106;11.548;2023-02-28T12:03:43;17.38;;;9.88;;
29812;SDS011;16707;48.106;11.548;2023-02-28T12:06:19;14.23;;;9.18;;
29812;SDS011;16707;48.106;11.548;2023-02-28T12:09:20;13.57;;;9.52;;
29812;SDS011;16707;48.106;11.548;2023-02-28T12:12:06;17.45;;;10.30;;
29812;SDS011;16707;48.106;11.548;2023-02-28T12:14:46;16.95;;;10.38;;
29812;SDS011;16707;48.106;11.548;2023-02-28T12:17:29;15.18;;;9.23;;
29812;SDS011;16707;48.106;11.548;2023-02-28T12:20:05;14.88;;;9.57;;
29812;SDS011;16707;48.106;11.548;2023-02-28T12:22:43;21.42;;;10.40;;
29812;SDS011;16707;48.106;11.548;2023-02-28T12:28:12;16.38;;;9.15;;
29812;SDS011;16707;48.106;11.548;2023-02-28T12:30:45;14.80;;;9.80;;
29812;SDS011;16707;48.106;11.548;2023-02-28T12:33:19;16.25;;;9.65;;
29812;SDS011;16707;48.106;11.548;2023-02-28T12:35:51;17.80;;;9.77;;
29812;SDS011;16707;48.106;11.548;2023-02-28T12:38:22;13.30;;;9.32;;
29812;SDS011;16707;48.106;11.548;2023-02-28T12:40:52;14.27;;;8.68;;
29812;SDS011;16707;48.106;11.548;2023-02-28T12:43:22;14.38;;;9.43;;
29812;SDS011;16707;48.106;11.548;2023-02-28T12:45:56;17.65;;;9.93;;
29812;SDS011;16707;48.106;11.548;2023-02-28T12:48:29;14.80;;;8.10;;
29812;SDS011;16707;48.106;11.548;2023-02-28T12:51:03;14.02;;;8.73;;
29812;SDS011;16707;48.106;11.548;2023-02-28T12:53:35;14.52;;;8.27;;
29812;SDS011;16707;48.106;11.548;2023-02-28T12:56:12;16.42;;;9.60;;
29812;SDS011;16707;48.106;11.548;2023-02-28T12:58:50;16.55;;;9.70;;
29812;SDS011;16707;48.106;11.548;2023-02-28T13:01:27;15.43;;;9.52;;
29812;SDS011;16707;48.106;11.548;2023-02-28T13:04:29;18.45;;;10.43;;
29812;SDS011;16707;48.106;11.548;2023-02-28T13:07:12;18.65;;;10.10;;
29812;SDS011;16707;48.106;11.548;2023-02-28T13:09:59;14.57;;;10.00;;
29812;SDS011;16707;48.106;11.548;2023-02-28T13:12:31;13.60;;;8.30;;
29812;SDS011;16707;48.106;11.548;2023-02-28T13:15:02;14.48;;;8.75;;
29812;SDS011;16707;48.106;11.548;2023-02-28T13:17:39;12.93;;;8.63;;
29812;SDS011;16707;48.106;11.548;2023-02-28T13:20:16;14.10;;;8.75;;
29812;SDS011;16707;48.106;11.548;2023-02-28T13:22:47;13.10;;;8.52;;
29812;SDS011;16707;48.106;11.548;2023-02-28T13:34:34;11.18;;;8.32;;
29812;SDS011;16707;48.106;11.548;2023-02-28T13:43:07;11.18;;;8.93;;
29812;SDS011;16707;48.106;11.548;2023-02-28T13:45:37;12.38;;;8.63;;
29812;SDS011;16707;48.106;11.548;2023-02-28T13:48:13;13.30;;;9.40;;
29812;SDS011;16707;48.106;11.548;2023-02-28T13:50:43;13.18;;;8.32;;
29812;SDS011;16707;48.106;11.548;2023-02-28T13:56:26;14.93;;;9.20;;
29812;SDS011;16707;48.106;11.548;2023-02-28T13:59:06;15.50;;;9.38;;
29812;SDS011;16707;48.106;11.548;2023-02-28T14:01:52;15.65;;;9.82;;
29812;SDS011;16707;48.106;11.548;2023-02-28T14:07:32;17.13;;;10.60;;
29812;SDS011;16707;48.106;11.548;2023-02-28T14:10:06;13.07;;;8.85;;
29812;SDS011;16707;48.106;11.548;2023-02-28T14:12:52;13.57;;;9.48;;
29812;SDS011;16707;48.106;11.548;2023-02-28T14:15:30;16.70;;;10.05;;
29812;SDS011;16707;48.106;11.548;2023-02-28T14:18:22;14.07;;;9.43;;
29812;SDS011;16707;48.106;11.548;2023-02-28T14:20:53;15.00;;;9.20;;
29812;SDS011;16707;48.106;11.548;2023-02-28T14:23:31;14.18;;;9.40;;
29812;SDS011;16707;48.106;11.548;2023-02-28T14:26:12;15.95;;;8.73;;
29812;SDS011;16707;48.106;11.548;2023-02-28T14:28:55;13.75;;;9.15;;
29812;SDS011;16707;48.106;11.548;2023-02-28T14:31:38;15.57;;;9.30;;
29812;SDS011;16707;48.106;11.548;2023-02-28T14:34:19;12.98;;;9.00;;
29812;SDS011;16707;48.106;11.548;2023-02-28T14:36:52;12.13;;;8.10;;
29812;SDS011;16707;48.106;11.548;2023-02-28T14:39:20;14.52;;;8.90;;
29812;SDS011;16707;48.106;11.548;2023-02-28T14:41:51;14.77;;;9.65;;
29812;SDS011;16707;48.106;11.548;2023-02-28T14:44:20;14.15;;;8.82;;
29812;SDS011;16707;48.106;11.548;2023-02-28T14:46:49;17.10;;;9.13;;
29812;SDS011;16707;48.106;11.548;2023-02-28T14:49:19;14.00;;;8.77;;
29812;SDS011;16707;48.106;11.548;2023-02-28T14:51:48;12.25;;;8.50;;
29812;SDS011;16707;48.106;11.548;2023-02-28T14:54:20;17.17;;;9.77;;
29812;SDS011;16707;48.106;11.548;2023-02-28T14:56:49;14.55;;;9.00;;
29812;SDS011;16707;48.106;11.548;2023-02-28T14:59:23;13.77;;;8.57;;
29812;SDS011;16707;48.106;11.548;2023-02-28T15:01:52;14.57;;;8.57;;
29812;SDS011;16707;48.106;11.548;2023-02-28T15:04:33;19.25;;;9.00;;
29812;SDS011;16707;48.106;11.548;2023-02-28T15:07:09;12.43;;;7.72;;
29812;SDS011;16707;48.106;11.548;2023-02-28T15:09:37;11.43;;;8.00;;
29812;SDS011;16707;48.106;11.548;2023-02-28T15:12:06;13.55;;;8.95;;
29812;SDS011;16707;48.106;11.548;2023-02-28T15:14:34;14.75;;;7.80;;
29812;SDS011;16707;48.106;11.548;2023-02-28T15:17:05;13.63;;;8.73;;
29812;SDS011;16707;48.106;11.548;2023-02-28T15:19:39;13.82;;;8.30;;
29812;SDS011;16707;48.106;11.548;2023-02-28T15:22:13;11.05;;;7.85;;
29812;SDS011;16707;48.106;11.548;2023-02-28T15:24:44;10.90;;;7.45;;
29812;SDS011;16707;48.106;11.548;2023-02-28T15:27:18;12.13;;;7.95;;
29812;SDS011;16707;48.106;11.548;2023-02-28T15:29:48;12.73;;;7.37;;
29812;SDS011;16707;48.106;11.548;2023-02-28T15:32:27;12.30;;;7.75;;